Time;durP1;ratioP1;P1;durP2;ratioP2;P2;SDS_P1;SDS_P2;PMS_P1;PMS_P2;Temp;Humidity;BMP_temperature;BMP_pressure;BME280_temperature;BME280_humidity;BME280_pressure;Samples;Min_cycle;Max_cycle;Signal;HPM_P1;HPM_P2
2021/10/04 00:02:07;;;;;;;;;;;12.40;99.90;;;;;;5036070;28;19955;-86
2021/10/04 00:04:33;;;;;;;;;;;12.30;99.90;;;;;;5041386;28;19908;-87
2021/10/04 00:06:58;;;;;;;;;;;12.40;99.90;;;;;;5054632;28;19995;-86
2021/10/04 00:09:24;;;;;;;;;;;12.30;99.90;;;;;;5071027;28;20376;-87
2021/10/04 00:11:50;;;;;;;;;;;12.30;99.90;;;;;;5071094;28;20003;-86
2021/10/04 00:14:16;;;;;;;;;;;12.30;99.90;;;;;;5070441;28;19913;-86
2021/10/04 00:16:41;;;;;;;;;;;12.30;99.90;;;;;;5072060;28;20391;-87
2021/10/04 00:19:07;;;;;;;;;;;12.40;99.90;;;;;;5054073;28;19973;-86
2021/10/04 00:21:32;;;;;;;;;;;12.40;99.90;;;;;;5053828;28;20415;-87
2021/10/04 00:23:58;;;;;;;;;;;12.40;99.90;;;;;;5053648;28;19916;-86
2021/10/04 00:26:23;;;;;;;;;;;12.40;99.90;;;;;;5053848;28;19919;-86
2021/10/04 00:28:49;;;;;;;;;;;12.30;99.90;;;;;;5062845;28;19908;-86
2021/10/04 00:31:14;;;;;;;;;;;12.30;99.90;;;;;;5041386;28;19936;-86
2021/10/04 00:33:40;;;;;;;;;;;12.50;99.90;;;;;;5042575;28;20376;-86
2021/10/04 00:36:05;;;;;;;;;;;12.40;99.90;;;;;;5053854;28;19999;-86
2021/10/04 00:38:31;;;;;;;;;;;12.40;99.90;;;;;;5053752;28;19966;-87
2021/10/04 00:40:56;;;;;;;;;;;12.30;99.90;;;;;;5071929;28;19958;-87
2021/10/04 00:43:22;;;;;;;;;;;12.30;99.90;;;;;;5054696;28;19915;-87
2021/10/04 00:45:48;;;;;;;;;;;12.30;99.90;;;;;;5044605;28;19915;-87
2021/10/04 00:48:14;;;;;;;;;;;12.30;99.90;;;;;;5069383;28;19995;-87
2021/10/04 00:50:39;;;;;;;;;;;12.30;99.90;;;;;;5058629;28;20000;-86
2021/10/04 00:53:05;;;;;;;;;;;12.30;99.90;;;;;;5057860;28;19920;-87
2021/10/04 00:55:31;;;;;;;;;;;12.30;99.90;;;;;;5065115;28;19912;-86
2021/10/04 00:57:57;;;;;;;;;;;12.50;99.90;;;;;;5053429;28;19917;-86
2021/10/04 01:00:24;;;;;;;;;;;12.30;99.90;;;;;;5055498;28;20004;-87
2021/10/04 01:02:50;;;;;;;;;;;12.30;99.90;;;;;;5071020;28;19958;-87
2021/10/04 01:05:15;;;;;;;;;;;12.30;99.90;;;;;;5057493;28;19912;-87
2021/10/04 01:07:41;;;;;;;;;;;12.20;99.90;;;;;;5075270;28;19912;-87
2021/10/04 01:10:09;;;;;;;;;;;12.20;99.90;;;;;;5057345;28;19908;-87
2021/10/04 01:12:35;;;;;;;;;;;12.20;99.90;;;;;;5063623;28;19909;-86
2021/10/04 01:15:01;;;;;;;;;;;12.20;99.90;;;;;;5067375;28;19908;-86
2021/10/04 01:17:26;;;;;;;;;;;12.20;99.90;;;;;;5052516;28;19909;-86
2021/10/04 01:19:52;;;;;;;;;;;12.20;99.90;;;;;;5044463;28;20276;-87
2021/10/04 01:22:17;;;;;;;;;;;12.20;99.90;;;;;;5072910;28;19912;-86
2021/10/04 01:24:43;;;;;;;;;;;12.20;99.90;;;;;;5057370;28;19908;-87
2021/10/04 01:27:08;;;;;;;;;;;12.20;99.90;;;;;;5060576;28;19916;-87
2021/10/04 01:29:34;;;;;;;;;;;12.20;99.90;;;;;;5046016;28;19959;-86
2021/10/04 01:31:59;;;;;;;;;;;12.20;99.90;;;;;;5047541;28;19913;-86
2021/10/04 01:34:25;;;;;;;;;;;12.20;99.90;;;;;;5056704;28;19919;-85
2021/10/04 01:36:51;;;;;;;;;;;12.10;99.90;;;;;;5057042;28;19912;-86
2021/10/04 01:39:16;;;;;;;;;;;12.10;99.90;;;;;;5074628;28;19999;-86
2021/10/04 01:41:42;;;;;;;;;;;12.10;99.90;;;;;;5056848;28;19908;-87
2021/10/04 01:44:07;;;;;;;;;;;12.10;99.90;;;;;;5047990;28;19909;-85
2021/10/04 01:46:33;;;;;;;;;;;12.10;99.90;;;;;;5063694;28;19913;-86
2021/10/04 01:48:59;;;;;;;;;;;12.00;99.90;;;;;;5074511;28;20002;-86
2021/10/04 01:51:24;;;;;;;;;;;11.90;99.90;;;;;;5074740;28;19908;-87
2021/10/04 01:53:50;;;;;;;;;;;11.90;99.90;;;;;;5055612;28;19908;-86
2021/10/04 01:56:15;;;;;;;;;;;11.90;99.90;;;;;;5054539;28;19955;-86
2021/10/04 01:58:41;;;;;;;;;;;11.90;99.90;;;;;;5077907;28;20336;-86
2021/10/04 02:01:06;;;;;;;;;;;11.90;99.90;;;;;;5046842;28;19909;-87
2021/10/04 02:03:32;;;;;;;;;;;11.90;99.90;;;;;;5050093;28;19931;-86
2021/10/04 02:05:57;;;;;;;;;;;11.90;99.90;;;;;;5037203;28;19909;-85
2021/10/04 02:08:23;;;;;;;;;;;11.80;99.90;;;;;;5056806;28;19923;-86
2021/10/04 02:10:50;;;;;;;;;;;11.80;99.90;;;;;;5055103;28;19908;-86
2021/10/04 02:13:16;;;;;;;;;;;11.80;99.90;;;;;;5054633;28;19956;-86
2021/10/04 02:15:42;;;;;;;;;;;11.80;99.90;;;;;;5050028;28;19915;-84
2021/10/04 02:18:09;;;;;;;;;;;11.70;99.90;;;;;;5053120;28;19909;-86
2021/10/04 02:20:36;;;;;;;;;;;11.70;99.90;;;;;;5053169;28;19916;-85
2021/10/04 02:23:08;;;;;;;;;;;11.60;99.90;;;;;;5052954;28;19947;-86
2021/10/04 02:25:35;;;;;;;;;;;11.60;99.90;;;;;;5055858;28;19959;-87
2021/10/04 02:28:00;;;;;;;;;;;11.50;99.90;;;;;;5063309;28;19916;-85
2021/10/04 02:30:26;;;;;;;;;;;11.40;99.90;;;;;;5053419;28;19909;-86
2021/10/04 02:32:51;;;;;;;;;;;11.20;99.90;;;;;;5040985;28;19932;-87
2021/10/04 02:35:17;;;;;;;;;;;11.20;99.90;;;;;;5052804;28;19908;-87
2021/10/04 02:37:43;;;;;;;;;;;11.00;99.90;;;;;;5049827;28;20384;-87
2021/10/04 02:40:09;;;;;;;;;;;11.00;99.90;;;;;;5052635;28;19913;-86
2021/10/04 02:42:35;;;;;;;;;;;11.00;99.90;;;;;;5052602;28;19909;-87
2021/10/04 02:45:00;;;;;;;;;;;10.90;99.90;;;;;;5056045;28;20041;-87
2021/10/04 02:47:26;;;;;;;;;;;10.90;99.90;;;;;;5056210;28;19913;-87
2021/10/04 02:49:51;;;;;;;;;;;10.90;99.90;;;;;;5053310;28;19915;-86
2021/10/04 02:52:17;;;;;;;;;;;10.90;99.90;;;;;;5071699;28;19910;-87
2021/10/04 02:54:43;;;;;;;;;;;11.00;99.90;;;;;;5073344;28;20283;-86
2021/10/04 02:57:09;;;;;;;;;;;11.00;99.90;;;;;;5055351;28;19917;-86
2021/10/04 02:59:34;;;;;;;;;;;11.00;99.90;;;;;;5050604;28;19913;-87
2021/10/04 03:02:00;;;;;;;;;;;11.00;99.90;;;;;;5039298;28;19914;-86
2021/10/04 03:04:25;;;;;;;;;;;11.00;99.90;;;;;;5055378;28;19913;-86
2021/10/04 03:06:51;;;;;;;;;;;10.90;99.90;;;;;;5055032;28;19967;-85
2021/10/04 03:09:16;;;;;;;;;;;11.00;99.90;;;;;;5073427;28;19908;-86
2021/10/04 03:11:42;;;;;;;;;;;10.90;99.90;;;;;;5047414;28;19995;-86
2021/10/04 03:14:07;;;;;;;;;;;10.90;99.90;;;;;;5049089;28;20360;-86
2021/10/04 03:16:33;;;;;;;;;;;11.00;99.90;;;;;;5049213;28;19909;-86
2021/10/04 03:18:58;;;;;;;;;;;10.90;99.90;;;;;;5052325;28;19916;-87
2021/10/04 03:21:24;;;;;;;;;;;10.90;99.90;;;;;;5043354;28;19916;-87
2021/10/04 03:23:49;;;;;;;;;;;10.90;99.90;;;;;;5055116;28;19916;-86
2021/10/04 03:26:15;;;;;;;;;;;10.90;99.90;;;;;;5072744;28;19914;-87
2021/10/04 03:28:41;;;;;;;;;;;10.90;99.90;;;;;;5047572;28;19909;-87
2021/10/04 03:31:06;;;;;;;;;;;10.90;99.90;;;;;;5055861;28;19913;-87
2021/10/04 03:33:32;;;;;;;;;;;10.90;99.90;;;;;;5060188;28;20031;-85
2021/10/04 03:35:57;;;;;;;;;;;10.90;99.90;;;;;;5053638;28;20327;-86
2021/10/04 03:38:23;;;;;;;;;;;10.90;99.90;;;;;;5042448;28;19915;-87
2021/10/04 03:40:48;;;;;;;;;;;10.90;99.90;;;;;;5054432;28;20265;-86
2021/10/04 03:43:14;;;;;;;;;;;10.90;99.90;;;;;;5054788;28;19924;-85
2021/10/04 03:45:39;;;;;;;;;;;10.90;99.90;;;;;;5055004;28;19908;-86
2021/10/04 03:48:05;;;;;;;;;;;10.90;99.90;;;;;;5073046;28;19916;-86
2021/10/04 03:50:30;;;;;;;;;;;10.90;99.90;;;;;;5054799;28;20398;-86
2021/10/04 03:52:56;;;;;;;;;;;10.90;99.90;;;;;;5037242;28;20360;-86
2021/10/04 03:55:21;;;;;;;;;;;10.80;99.90;;;;;;5052691;28;19908;-86
2021/10/04 03:57:47;;;;;;;;;;;10.80;99.90;;;;;;5056429;28;19920;-86
2021/10/04 04:00:17;;;;;;;;;;;10.80;99.90;;;;;;5053535;28;19934;-85
2021/10/04 04:02:43;;;;;;;;;;;10.80;99.90;;;;;;5060075;28;19995;-85
2021/10/04 04:05:09;;;;;;;;;;;10.90;99.90;;;;;;5051875;28;19966;-86
2021/10/04 04:07:34;;;;;;;;;;;10.90;99.90;;;;;;5072178;28;19959;-85
2021/10/04 04:10:00;;;;;;;;;;;10.90;99.90;;;;;;5044540;28;19931;-86
2021/10/04 04:12:25;;;;;;;;;;;10.80;99.90;;;;;;5048015;28;19943;-86
2021/10/04 04:14:51;;;;;;;;;;;10.90;99.90;;;;;;5048066;28;19915;-85
2021/10/04 04:17:16;;;;;;;;;;;10.80;99.90;;;;;;5050417;28;19912;-86
2021/10/04 04:19:42;;;;;;;;;;;10.80;99.90;;;;;;5071893;28;19995;-86
2021/10/04 04:22:07;;;;;;;;;;;10.80;99.90;;;;;;5072226;28;20329;-86
2021/10/04 04:24:33;;;;;;;;;;;10.80;99.90;;;;;;5054164;28;19916;-87
2021/10/04 04:27:04;;;;;;;;;;;10.80;99.90;;;;;;5054254;28;19947;-86
2021/10/04 04:29:30;;;;;;;;;;;10.80;99.90;;;;;;5044602;28;19913;-86
2021/10/04 04:31:55;;;;;;;;;;;10.80;99.90;;;;;;5037406;28;19913;-86
2021/10/04 04:34:21;;;;;;;;;;;10.90;99.90;;;;;;5039070;28;19909;-86
2021/10/04 04:36:47;;;;;;;;;;;10.90;99.90;;;;;;5048297;28;19909;-86
2021/10/04 04:39:12;;;;;;;;;;;10.90;99.90;;;;;;5051491;28;20269;-86
2021/10/04 04:41:38;;;;;;;;;;;10.90;99.90;;;;;;5051409;28;19930;-86
2021/10/04 04:44:03;;;;;;;;;;;10.80;99.90;;;;;;5052345;28;19909;-85
2021/10/04 04:46:29;;;;;;;;;;;10.90;99.90;;;;;;5051029;28;19967;-86
2021/10/04 04:48:54;;;;;;;;;;;10.90;99.90;;;;;;5048235;28;20007;-86
2021/10/04 04:51:20;;;;;;;;;;;10.90;99.90;;;;;;5054129;28;20376;-86
2021/10/04 04:53:45;;;;;;;;;;;10.90;99.90;;;;;;5053715;28;19987;-85
2021/10/04 04:56:11;;;;;;;;;;;10.90;99.90;;;;;;5054463;28;20441;-86
2021/10/04 04:58:37;;;;;;;;;;;10.80;99.90;;;;;;5065589;28;19913;-86
2021/10/04 05:01:03;;;;;;;;;;;10.90;99.90;;;;;;5037432;28;19954;-86
2021/10/04 05:03:28;;;;;;;;;;;10.80;99.90;;;;;;5065934;28;19913;-86
2021/10/04 05:05:54;;;;;;;;;;;10.80;99.90;;;;;;5053729;28;20355;-86
2021/10/04 05:08:19;;;;;;;;;;;10.70;99.90;;;;;;5068797;28;19919;-86
2021/10/04 05:10:45;;;;;;;;;;;10.70;99.90;;;;;;5041146;28;19913;-86
2021/10/04 05:13:10;;;;;;;;;;;10.80;99.90;;;;;;5053521;28;19916;-86
2021/10/04 05:15:36;;;;;;;;;;;10.80;99.90;;;;;;5053513;28;19908;-87
2021/10/04 05:18:02;;;;;;;;;;;10.80;99.90;;;;;;5053452;28;19995;-87
2021/10/04 05:20:27;;;;;;;;;;;10.80;99.90;;;;;;5053357;28;19993;-86
2021/10/04 05:22:53;;;;;;;;;;;10.80;99.90;;;;;;5046713;28;19908;-86
2021/10/04 05:25:18;;;;;;;;;;;10.90;99.90;;;;;;5071209;28;19909;-86
2021/10/04 05:27:44;;;;;;;;;;;10.90;99.90;;;;;;5052556;28;20007;-87
2021/10/04 05:30:10;;;;;;;;;;;10.90;99.90;;;;;;5052155;28;20426;-86
2021/10/04 05:32:35;;;;;;;;;;;10.90;99.90;;;;;;5045190;28;19917;-86
2021/10/04 05:35:01;;;;;;;;;;;10.80;99.90;;;;;;5074828;28;19909;-85
2021/10/04 05:37:27;;;;;;;;;;;10.90;99.90;;;;;;5057591;28;19915;-86
2021/10/04 05:39:52;;;;;;;;;;;10.90;99.90;;;;;;5057052;28;19908;-86
2021/10/04 05:42:18;;;;;;;;;;;10.90;99.90;;;;;;5052040;28;19943;-86
2021/10/04 05:44:45;;;;;;;;;;;10.90;99.90;;;;;;5050599;28;19995;-86
2021/10/04 05:47:12;;;;;;;;;;;10.80;99.90;;;;;;5045820;28;19961;-85
2021/10/04 05:49:37;;;;;;;;;;;10.90;99.90;;;;;;5049078;28;19913;-85
2021/10/04 05:52:03;;;;;;;;;;;10.90;99.90;;;;;;5055442;28;19931;-85
2021/10/04 05:54:28;;;;;;;;;;;10.90;99.90;;;;;;5062097;28;19951;-84
2021/10/04 05:56:54;;;;;;;;;;;10.90;99.90;;;;;;5048986;28;19970;-85
2021/10/04 05:59:19;;;;;;;;;;;10.90;99.90;;;;;;5046242;28;19913;-85
2021/10/04 06:01:45;;;;;;;;;;;10.90;99.90;;;;;;5036993;28;19952;-85
2021/10/04 06:04:10;;;;;;;;;;;10.90;99.90;;;;;;5049815;28;19909;-85
2021/10/04 06:06:36;;;;;;;;;;;11.00;99.90;;;;;;5056210;28;19978;-85
2021/10/04 06:09:01;;;;;;;;;;;10.90;99.90;;;;;;5055287;28;19913;-84
2021/10/04 06:11:27;;;;;;;;;;;10.90;99.90;;;;;;5055486;28;19908;-85
2021/10/04 06:13:52;;;;;;;;;;;10.90;99.90;;;;;;5056327;28;19909;-86
2021/10/04 06:16:18;;;;;;;;;;;11.00;99.90;;;;;;5073985;28;20378;-85
2021/10/04 06:18:43;;;;;;;;;;;11.00;99.90;;;;;;5073945;28;20024;-85
2021/10/04 06:21:09;;;;;;;;;;;11.00;99.90;;;;;;5073755;28;19916;-85
2021/10/04 06:23:34;;;;;;;;;;;11.00;99.90;;;;;;5067885;28;19999;-84
2021/10/04 06:26:00;;;;;;;;;;;11.00;99.90;;;;;;5045048;28;20291;-86
2021/10/04 06:28:26;;;;;;;;;;;11.00;99.90;;;;;;5040371;28;19916;-87
2021/10/04 06:30:51;;;;;;;;;;;11.10;99.90;;;;;;5065471;28;19912;-84
2021/10/04 06:33:17;;;;;;;;;;;11.10;99.90;;;;;;5039844;28;19913;-83
2021/10/04 06:35:42;;;;;;;;;;;11.10;99.90;;;;;;5075498;28;20524;-83
2021/10/04 06:38:08;;;;;;;;;;;11.20;99.90;;;;;;5056966;28;19917;-85
2021/10/04 06:40:33;;;;;;;;;;;11.20;99.90;;;;;;5065646;28;19912;-86
2021/10/04 06:42:59;;;;;;;;;;;11.10;99.90;;;;;;5041308;28;20031;-86
2021/10/04 06:45:24;;;;;;;;;;;11.10;99.90;;;;;;5073308;28;19996;-84
2021/10/04 06:47:50;;;;;;;;;;;11.20;99.90;;;;;;5042625;28;19912;-86
2021/10/04 06:50:15;;;;;;;;;;;11.10;99.90;;;;;;5061055;28;19970;-87
2021/10/04 06:52:41;;;;;;;;;;;11.10;99.90;;;;;;5047793;28;19908;-86
2021/10/04 06:55:08;;;;;;;;;;;11.10;99.90;;;;;;5043344;28;19908;-85
2021/10/04 06:57:36;;;;;;;;;;;11.00;99.90;;;;;;5062826;28;19916;-86
2021/10/04 07:00:03;;;;;;;;;;;11.00;99.90;;;;;;5045943;28;20411;-85
2021/10/04 07:02:29;;;;;;;;;;;11.00;99.90;;;;;;5057727;28;19916;-86
2021/10/04 07:04:54;;;;;;;;;;;11.00;99.90;;;;;;5053990;28;19912;-85
2021/10/04 07:07:20;;;;;;;;;;;11.00;99.90;;;;;;5053964;28;20358;-86
2021/10/04 07:09:47;;;;;;;;;;;11.00;99.90;;;;;;5055443;28;19942;-85
2021/10/04 07:12:13;;;;;;;;;;;11.10;99.90;;;;;;5043725;28;19909;-85
2021/10/04 07:14:38;;;;;;;;;;;11.10;99.90;;;;;;5047148;28;19908;-85
2021/10/04 07:17:04;;;;;;;;;;;11.10;99.90;;;;;;5046529;28;20373;-85
2021/10/04 07:19:29;;;;;;;;;;;11.10;99.90;;;;;;5044198;28;19909;-82
2021/10/04 07:21:55;;;;;;;;;;;11.20;99.90;;;;;;5070466;28;19920;-83
2021/10/04 07:24:21;;;;;;;;;;;11.30;99.90;;;;;;5064732;28;20506;-82
2021/10/04 07:26:47;;;;;;;;;;;11.30;99.90;;;;;;5050371;28;20020;-83
2021/10/04 07:29:16;;;;;;;;;;;11.40;99.90;;;;;;5048243;28;19909;-83
2021/10/04 07:31:41;;;;;;;;;;;11.30;99.90;;;;;;5058344;28;19959;-83
2021/10/04 07:34:07;;;;;;;;;;;11.30;99.90;;;;;;5053976;28;19924;-86
2021/10/04 07:36:34;;;;;;;;;;;11.30;99.90;;;;;;5055168;28;19909;-86
2021/10/04 07:38:59;;;;;;;;;;;11.40;99.90;;;;;;5063841;28;19909;-84
2021/10/04 07:41:25;;;;;;;;;;;11.30;99.90;;;;;;5059056;28;19920;-85
2021/10/04 07:43:51;;;;;;;;;;;11.40;99.90;;;;;;5056361;28;19915;-85
2021/10/04 07:46:16;;;;;;;;;;;11.50;99.90;;;;;;5039551;28;19959;-85
2021/10/04 07:48:42;;;;;;;;;;;11.50;99.90;;;;;;5059268;28;20042;-84
2021/10/04 07:51:08;;;;;;;;;;;11.50;99.90;;;;;;5046711;28;19916;-86
2021/10/04 07:53:36;;;;;;;;;;;11.40;99.90;;;;;;5060606;28;19943;-85
2021/10/04 07:56:02;;;;;;;;;;;11.40;99.90;;;;;;5040115;28;19936;-85
2021/10/04 07:58:28;;;;;;;;;;;11.40;99.90;;;;;;5051852;28;19924;-85
2021/10/04 08:00:54;;;;;;;;;;;11.40;99.90;;;;;;5055549;28;20319;-86
2021/10/04 08:03:19;;;;;;;;;;;11.40;99.90;;;;;;5052424;28;19909;-86
2021/10/04 08:05:45;;;;;;;;;;;11.60;99.90;;;;;;5054714;28;19912;-85
2021/10/04 08:08:10;;;;;;;;;;;11.70;99.90;;;;;;5037897;28;19913;-86
2021/10/04 08:10:36;;;;;;;;;;;11.70;99.90;;;;;;5063030;28;19920;-87
2021/10/04 08:13:04;;;;;;;;;;;11.70;99.90;;;;;;5043501;28;19974;-87
2021/10/04 08:15:30;;;;;;;;;;;11.70;99.90;;;;;;5056071;28;20005;-87
2021/10/04 08:17:56;;;;;;;;;;;11.70;99.90;;;;;;5045225;28;20360;-88
2021/10/04 08:20:22;;;;;;;;;;;11.70;99.90;;;;;;5049702;28;19951;-86
2021/10/04 08:22:47;;;;;;;;;;;11.70;99.90;;;;;;5040968;28;19920;-87
2021/10/04 08:25:13;;;;;;;;;;;11.60;99.90;;;;;;5052849;28;19909;-86
2021/10/04 08:27:39;;;;;;;;;;;11.50;99.90;;;;;;5037246;28;19912;-86
2021/10/04 08:30:05;;;;;;;;;;;11.60;99.90;;;;;;5045977;28;19920;-86
2021/10/04 08:32:30;;;;;;;;;;;11.60;99.90;;;;;;5036564;28;20000;-86
2021/10/04 08:34:56;;;;;;;;;;;11.60;99.90;;;;;;5059026;28;20007;-86
2021/10/04 08:37:21;;;;;;;;;;;11.50;99.90;;;;;;5081467;28;20279;-84
2021/10/04 08:39:47;;;;;;;;;;;11.60;99.90;;;;;;5050256;28;19909;-86
2021/10/04 08:42:13;;;;;;;;;;;11.50;99.90;;;;;;5063404;28;19924;-86
2021/10/04 08:44:40;;;;;;;;;;;11.40;99.90;;;;;;5047119;28;19915;-86
2021/10/04 08:47:06;;;;;;;;;;;11.40;99.90;;;;;;5054734;28;19912;-85
2021/10/04 08:49:33;;;;;;;;;;;11.30;99.90;;;;;;5050581;28;19967;-85
2021/10/04 08:52:00;;;;;;;;;;;11.30;99.90;;;;;;5054935;28;19959;-86
2021/10/04 08:54:26;;;;;;;;;;;11.30;99.90;;;;;;5045379;28;19912;-86
2021/10/04 08:56:52;;;;;;;;;;;11.30;99.90;;;;;;5045264;28;20027;-84
2021/10/04 08:59:18;;;;;;;;;;;11.40;99.90;;;;;;5058747;28;20384;-85
2021/10/04 09:01:43;;;;;;;;;;;11.40;99.90;;;;;;5052580;28;19909;-86
2021/10/04 09:04:09;;;;;;;;;;;11.50;99.90;;;;;;5049059;28;19909;-85
2021/10/04 09:06:36;;;;;;;;;;;11.60;99.90;;;;;;5055990;28;20261;-85
2021/10/04 09:09:03;;;;;;;;;;;11.60;99.90;;;;;;5071441;28;20429;-86
2021/10/04 09:11:30;;;;;;;;;;;11.60;99.90;;;;;;5056543;28;19951;-86
2021/10/04 09:14:00;;;;;;;;;;;11.70;99.90;;;;;;5057686;28;19920;-88
2021/10/04 09:16:25;;;;;;;;;;;11.70;99.90;;;;;;5059878;28;19936;-86
2021/10/04 09:18:54;;;;;;;;;;;11.90;99.90;;;;;;5045674;28;20380;-86
2021/10/04 09:21:19;;;;;;;;;;;11.90;99.90;;;;;;5055357;28;19909;-85
2021/10/04 09:23:52;;;;;;;;;;;11.90;99.90;;;;;;5055020;28;19977;-86
2021/10/04 09:26:27;;;;;;;;;;;11.90;99.90;;;;;;5071775;28;19909;-86
2021/10/04 09:28:56;;;;;;;;;;;11.90;99.90;;;;;;5046442;28;20421;-87
2021/10/04 09:31:23;;;;;;;;;;;11.80;99.90;;;;;;5046393;28;19956;-87
2021/10/04 09:33:58;;;;;;;;;;;11.90;99.90;;;;;;5049382;28;19908;-86
2021/10/04 09:36:23;;;;;;;;;;;12.00;99.90;;;;;;5043581;28;19917;-87
2021/10/04 09:39:09;;;;;;;;;;;12.10;99.90;;;;;;5041568;28;19973;-86
2021/10/04 09:41:34;;;;;;;;;;;12.00;99.90;;;;;;5036154;28;19909;-86
2021/10/04 09:44:03;;;;;;;;;;;12.10;99.90;;;;;;5070907;28;19938;-86
2021/10/04 09:46:29;;;;;;;;;;;12.10;99.90;;;;;;5045853;28;19928;-85
2021/10/04 09:49:01;;;;;;;;;;;12.00;99.90;;;;;;5065747;28;20299;-86
2021/10/04 09:51:26;;;;;;;;;;;12.00;99.90;;;;;;5045876;28;20400;-86
2021/10/04 09:54:10;;;;;;;;;;;12.00;99.90;;;;;;5052965;28;20022;-84
2021/10/04 09:56:37;;;;;;;;;;;12.10;99.90;;;;;;5041405;28;19983;-86
2021/10/04 09:59:02;;;;;;;;;;;12.20;99.90;;;;;;5045319;28;19913;-85
2021/10/04 10:01:28;;;;;;;;;;;12.30;99.90;;;;;;5066230;28;19909;-87
2021/10/04 10:03:54;;;;;;;;;;;12.40;99.90;;;;;;5040869;28;19909;-86
2021/10/04 10:06:20;;;;;;;;;;;12.60;99.90;;;;;;5067456;28;20017;-87
2021/10/04 10:08:46;;;;;;;;;;;12.60;99.90;;;;;;5044540;28;20388;-87
2021/10/04 10:11:17;;;;;;;;;;;12.90;99.90;;;;;;5049751;28;19944;-86
2021/10/04 10:13:43;;;;;;;;;;;13.10;99.90;;;;;;5056764;28;20356;-87
2021/10/04 10:16:10;;;;;;;;;;;13.20;99.90;;;;;;5041963;28;19917;-88
2021/10/04 10:19:08;;;;;;;;;;;13.20;99.90;;;;;;5046210;28;19913;-86
2021/10/04 10:21:34;;;;;;;;;;;13.10;99.90;;;;;;5003993;28;19927;-87
2021/10/04 10:24:01;;;;;;;;;;;13.10;99.90;;;;;;5047839;28;19920;-86
2021/10/04 10:26:31;;;;;;;;;;;12.80;99.90;;;;;;5063892;28;19999;-86
2021/10/04 10:29:09;;;;;;;;;;;12.80;99.90;;;;;;5056462;28;19908;-85
2021/10/04 10:32:04;;;;;;;;;;;12.80;99.90;;;;;;5047014;28;20291;-86
2021/10/04 10:34:29;;;;;;;;;;;13.00;99.90;;;;;;5032050;28;20276;-87
2021/10/04 10:36:56;;;;;;;;;;;13.20;99.90;;;;;;5043483;28;19909;-86
2021/10/04 10:39:35;;;;;;;;;;;13.30;99.90;;;;;;5049334;28;19944;-87
2021/10/04 10:42:10;;;;;;;;;;;13.10;99.90;;;;;;5044958;28;19909;-88
2021/10/04 10:44:55;;;;;;;;;;;13.10;99.90;;;;;;5089350;28;19912;-89
2021/10/04 10:47:33;;;;;;;;;;;12.90;99.90;;;;;;5055644;28;19999;-88
2021/10/04 10:49:59;;;;;;;;;;;12.70;99.90;;;;;;5053299;28;19908;-88
2021/10/04 10:52:26;;;;;;;;;;;12.70;99.90;;;;;;5042224;28;20274;-87
2021/10/04 10:54:52;;;;;;;;;;;12.80;99.90;;;;;;5052232;28;19958;-87
2021/10/04 10:57:19;;;;;;;;;;;13.00;99.90;;;;;;5058347;28;19917;-88
2021/10/04 10:59:44;;;;;;;;;;;13.20;99.90;;;;;;5037265;28;20465;-88
2021/10/04 11:02:28;;;;;;;;;;;13.40;99.90;;;;;;5056133;28;19962;-86
2021/10/04 11:04:54;;;;;;;;;;;13.60;99.90;;;;;;5056456;28;19909;-87
2021/10/04 11:07:38;;;;;;;;;;;13.70;99.90;;;;;;5070223;28;20271;-87
2021/10/04 11:10:07;;;;;;;;;;;13.80;99.90;;;;;;5045852;28;19936;-88
2021/10/04 11:12:51;;;;;;;;;;;13.80;99.90;;;;;;5052740;28;19920;-87
2021/10/04 11:15:29;;;;;;;;;;;13.60;99.90;;;;;;5036573;28;20261;-86
2021/10/04 11:17:55;;;;;;;;;;;13.70;99.90;;;;;;5083834;28;19939;-88
2021/10/04 11:20:20;;;;;;;;;;;13.50;99.90;;;;;;5055629;28;19923;-87
2021/10/04 11:22:46;;;;;;;;;;;13.50;99.90;;;;;;5044063;28;19919;-87
2021/10/04 11:25:11;;;;;;;;;;;13.40;99.90;;;;;;5060407;28;19915;-87
2021/10/04 11:27:49;;;;;;;;;;;13.40;99.90;;;;;;5042646;28;19913;-88
2021/10/04 11:30:15;;;;;;;;;;;13.50;99.90;;;;;;5047135;28;19958;-87
2021/10/04 11:32:40;;;;;;;;;;;13.50;99.90;;;;;;5048612;28;19909;-87
2021/10/04 11:35:15;;;;;;;;;;;13.40;99.90;;;;;;5054541;28;19913;-86
2021/10/04 11:37:40;;;;;;;;;;;13.30;99.90;;;;;;5050097;28;19908;-86
2021/10/04 11:40:06;;;;;;;;;;;13.60;99.90;;;;;;5069574;28;20352;-84
2021/10/04 11:42:32;;;;;;;;;;;13.60;99.90;;;;;;5054926;28;19908;-86
2021/10/04 11:45:00;;;;;;;;;;;13.50;99.90;;;;;;5074242;28;19909;-87
2021/10/04 11:47:26;;;;;;;;;;;13.50;99.90;;;;;;5072814;28;19978;-86
2021/10/04 11:49:53;;;;;;;;;;;13.40;99.90;;;;;;5055241;28;19912;-87
2021/10/04 11:52:19;;;;;;;;;;;13.60;99.90;;;;;;5051192;28;20015;-85
2021/10/04 11:54:46;;;;;;;;;;;13.50;99.90;;;;;;5048772;28;19962;-86
2021/10/04 11:57:28;;;;;;;;;;;13.70;99.90;;;;;;5039605;28;19998;-86
2021/10/04 11:59:55;;;;;;;;;;;13.80;99.90;;;;;;5062040;28;19916;-85
2021/10/04 12:02:22;;;;;;;;;;;13.70;99.90;;;;;;5045327;28;19943;-85
2021/10/04 12:04:49;;;;;;;;;;;13.50;99.90;;;;;;5051571;28;19909;-88
2021/10/04 12:07:15;;;;;;;;;;;13.30;99.90;;;;;;5045297;28;19920;-89
2021/10/04 12:09:41;;;;;;;;;;;13.20;99.90;;;;;;5068434;28;19909;-87
2021/10/04 12:12:07;;;;;;;;;;;13.20;99.90;;;;;;5054508;28;20434;-86
2021/10/04 12:14:34;;;;;;;;;;;13.40;99.90;;;;;;5072035;28;19916;-86
2021/10/04 12:17:00;;;;;;;;;;;13.50;99.90;;;;;;5055298;28;19913;-89
2021/10/04 12:19:27;;;;;;;;;;;13.80;99.90;;;;;;5073081;28;19913;-88
2021/10/04 12:21:55;;;;;;;;;;;13.80;99.90;;;;;;5044773;28;19959;-86
2021/10/04 12:24:22;;;;;;;;;;;13.70;99.90;;;;;;5041039;28;20392;-86
2021/10/04 12:27:09;;;;;;;;;;;13.60;99.90;;;;;;5048369;28;19912;-86
2021/10/04 12:29:38;;;;;;;;;;;14.10;99.90;;;;;;5054205;28;19924;-86
2021/10/04 12:32:19;;;;;;;;;;;14.50;99.90;;;;;;5053297;28;19908;-86
2021/10/04 12:35:06;;;;;;;;;;;14.80;99.90;;;;;;5059284;28;19946;-88
2021/10/04 12:37:32;;;;;;;;;;;15.60;99.90;;;;;;5049221;28;19909;-86
2021/10/04 12:39:58;;;;;;;;;;;15.80;99.90;;;;;;5050784;28;19913;-85
2021/10/04 12:42:25;;;;;;;;;;;16.00;99.90;;;;;;5047919;28;20288;-86
2021/10/04 12:44:51;;;;;;;;;;;15.80;99.90;;;;;;5075180;28;20318;-86
2021/10/04 12:47:19;;;;;;;;;;;15.60;99.90;;;;;;5058418;28;19999;-88
2021/10/04 12:49:54;;;;;;;;;;;15.50;99.90;;;;;;5058557;28;19912;-86
2021/10/04 12:52:21;;;;;;;;;;;15.20;99.90;;;;;;5084509;28;19913;-86
2021/10/04 12:54:50;;;;;;;;;;;15.20;99.90;;;;;;5051549;28;19908;-86
2021/10/04 12:57:28;;;;;;;;;;;15.20;99.90;;;;;;5051023;28;20352;-87
2021/10/04 13:00:01;;;;;;;;;;;15.00;99.90;;;;;;5038964;28;19909;-86
2021/10/04 13:02:28;;;;;;;;;;;15.00;99.90;;;;;;5054764;28;20503;-87
2021/10/04 13:04:55;;;;;;;;;;;14.50;99.90;;;;;;5058546;28;20304;-86
2021/10/04 13:07:21;;;;;;;;;;;14.60;99.90;;;;;;5074806;28;19913;-86
2021/10/04 13:09:48;;;;;;;;;;;14.30;99.90;;;;;;5073066;28;19920;-86
2021/10/04 13:12:18;;;;;;;;;;;14.10;99.90;;;;;;5057940;28;19954;-87
2021/10/04 13:14:53;;;;;;;;;;;14.30;99.90;;;;;;5057718;28;19909;-86
2021/10/04 13:17:18;;;;;;;;;;;14.20;99.90;;;;;;5057858;28;19909;-86
2021/10/04 13:19:48;;;;;;;;;;;14.20;99.90;;;;;;5069287;28;19916;-86
2021/10/04 13:22:21;;;;;;;;;;;14.10;99.90;;;;;;5051570;28;19908;-86
2021/10/04 13:24:51;;;;;;;;;;;14.00;99.90;;;;;;5041370;28;20360;-85
2021/10/04 13:27:19;;;;;;;;;;;13.80;99.90;;;;;;5043134;28;19966;-85
2021/10/04 13:29:44;;;;;;;;;;;13.90;99.90;;;;;;5044885;28;19916;-86
2021/10/04 13:32:10;;;;;;;;;;;13.80;99.90;;;;;;5043933;28;19908;-86
2021/10/04 13:34:35;;;;;;;;;;;13.60;99.90;;;;;;5038227;28;20000;-86
2021/10/04 13:37:01;;;;;;;;;;;13.70;99.90;;;;;;5049084;28;19915;-86
2021/10/04 13:39:27;;;;;;;;;;;14.10;99.90;;;;;;5037837;28;19932;-86
2021/10/04 13:41:52;;;;;;;;;;;14.40;99.90;;;;;;5054533;28;19909;-85
2021/10/04 13:44:18;;;;;;;;;;;14.50;99.90;;;;;;5055700;28;19999;-85
2021/10/04 13:46:43;;;;;;;;;;;14.40;99.90;;;;;;5055611;28;19909;-87
2021/10/04 13:49:10;;;;;;;;;;;14.70;99.90;;;;;;5037817;28;19909;-86
2021/10/04 13:51:35;;;;;;;;;;;14.40;99.90;;;;;;5054927;28;19934;-87
2021/10/04 13:54:01;;;;;;;;;;;14.40;99.90;;;;;;5072137;28;19999;-86
2021/10/04 13:56:29;;;;;;;;;;;14.50;99.90;;;;;;5056138;28;19909;-86
2021/10/04 13:58:57;;;;;;;;;;;14.40;99.90;;;;;;5055645;28;19909;-87
2021/10/04 14:01:25;;;;;;;;;;;14.30;99.90;;;;;;5051154;28;19924;-87
2021/10/04 14:03:50;;;;;;;;;;;14.30;99.90;;;;;;5069452;28;20429;-88
2021/10/04 14:06:20;;;;;;;;;;;14.40;99.90;;;;;;5061352;28;20409;-88
2021/10/04 14:08:48;;;;;;;;;;;14.30;99.90;;;;;;5044497;28;19951;-88
2021/10/04 14:11:16;;;;;;;;;;;14.50;99.90;;;;;;5053761;28;19909;-88
2021/10/04 14:13:44;;;;;;;;;;;14.60;99.90;;;;;;5053569;28;19909;-88
2021/10/04 14:16:09;;;;;;;;;;;14.50;99.90;;;;;;5068503;28;19931;-88